Strona główna
METAR-TAF:

Lotnisko :

Kraków, Polska

Port lotniczy Kraków-Balice

Szerokość geograficzna: 50-05N, Długość geograficzna: 019-48E, wysokość: 237 m

Aktualna obserwacja pogody

Raport powstał 31 minut temu, godzina 07:00 UTC
Wiatr 1 kt z kierunków zmiennych
Temperatura -1°C
Wilgotność 93%
Ciśnienie 1007 hPa
Widzialność 10 km lub więcej
Brak chmur poniżej 1500 m i brak chmur cumulonimbus

METAR: EPKK 120700Z VRB01KT CAVOK M01/M02 Q1007

czas: 08:31 (07:31 UTC)

Prognoza

Raport powstał 2 godziny i 1 minut temu, godzina 05:30 UTC
Prognoza ważna od 12 godzina 06 UTC do 13 godzina 06 UTC
Wiatr 2 kt z kierunków zmiennych
Widzialność 10 km lub więcej
Przerywane chmury na wysokości 3300 ft
Przejściowo
od 12 godzina 17 UTC do 13 godzina 06 UTC
Widzialność: 5000 m
Zachmurzenie całkowite na wysokości 1300 ft
deszcz, śnieg, zamglenie

TAF: EPKK 120530Z 1206/1306 VRB02KT 9999 BKN033 TEMPO 1217/1306 5000 RASN BR OVC013

METAR-TAF

Obserwacja i prognoza pogody dla ponad 4000 lotnisk (raport METAR i TAF).

Dostępne stacje oznaczono żółtymi i czerwonymi punktami na mapie.

Najedź kursorem aby zobaczyć nazwę stacji.

Kliknij aby zobaczyć obserwacje i prognozy pogody.

Aby zmienić mapę: kliknij na zielony przycisk z czarnym krzyżykiem, aby powiększyć; na zielony przycisk z myślnikiem, aby pomniejszyć; na zielone strzałki, aby przejść do map sąsiednich.


METAR-TAF: